Carmi, Illinois
Current Conditions -  °F | °C
As of 9:35 AM on Friday 28 Nov 2014 (Local Time) from KCUL Reporting Station
Clear Clear  
Wind Chill: 24°   Ceiling: Unl
Heat Index: 33°   Visibility: 7mi
Dew Point: 31°   Wind: 14mph
Humidity: 90%   Direction: 170°S
Pressure: 30.34"   Gusts: NA
Location:  38.09°N, 88.17°W
Report Text: KCUL 281535Z AUTO 17012KT 7SM CLR 01/M01 A3034 RMK AO2 T00081006
Loading
Personal Weather Stations






























Interactive Weather Map New forecast layout! Learn more

10-Day Weather Forecast

Advertisements
Track Severe Weather on mobile